Joint Base Pearl Harbor Hickam, HI (96853)

7:44 PM HST on February 10, 2016 (GMT -1000)
Mokulele Elementary | | Change Station
CLOSE
Current Station
Personal Weather Station
Location: Honolulu, HI
Elevation: 23 ft
Nearby Weather Stations

Elev 23 ft 21.34 °N, 157.94 °W | Updated 14 seconds ago

Scattered Clouds
Scattered Clouds
73.4 °F
Feels Like 76 °F
N
0.2
Wind Variable Wind from West
Gusts 2.5 mph

Today
High -- | Low -- °F
--% Chance of Precip.
Yesterday
High -- | Low -- °F
Precip. -- in
Pressure 30.04 in
Visibility 10.0 miles
Clouds Few 2700 ft
Scattered Clouds 3800 ft
Scattered Clouds 4800 ft
Heat Index 76 °F
Dew Point 61 °F
Humidity 65%
Rainfall 0.00 in
Snow Depth Not available.
7:05 AM 6:27 PM
Waxing Crescent, 9% visible
METAR PHNL 110453Z 04005KT 10SM FEW027 SCT038 SCT048 23/14 A3003 RMK AO2 SLP170 T02330144
Pressure 30.04 in
Visibility 10.0 miles
Clouds Few 2700 ft
Scattered Clouds 3800 ft
Scattered Clouds 4800 ft
Heat Index 76 °F
Dew Point 61 °F
Humidity 65%
Rainfall 0.00 in
Snow Depth Not available.
7:05 AM 6:27 PM
Waxing Crescent, 9% visible
METAR PHNL 110453Z 04005KT 10SM FEW027 SCT038 SCT048 23/14 A3003 RMK AO2 SLP170 T02330144

10-Day Weather Forecast

Almanac

Astronomy

Feb. 10, 2016 Rise Set
Actual Time
Civil Twilight
Nautical Twilight
Astronomical Twilight
Moon
Length of Visible Light
Length of Day
Tomorrow will be .
, % of the Moon is Illuminated

Today's Extremes

State Highs State Lows

Community

WunderPhotos

Upload Photos

1,892,023 photos uploaded!

WunderBlog® & News

Nearby

Air Quality

  Air Quality AQ Index Pollutant
Not available.

Snow Depth

Station Depth Elevation

Earthquake Activity

City Distance Mag. Time & Date
Minimum magnitude displayed is 2.5.

Coastal Water Temperatures

Place Temperature

Stations

Nearby Weather Stations

Station Location Temp. Windchill Dew Point Humidity Wind Precip. Elev Updated Type
                   

Watches & Warnings

There are currently no watches in effect.